Terminal Aerodrome Forecast
Issued by NWS Sterling, VA

Current Version | Previous Version | Graphics & Text | Print | Product List | Glossary On
Versions: 1 2 3 4 5 6 7 8 9 10 11 12 13 14 15 16 17 18 19 20
644
FTUS41 KLWX 261439 AAA
TAFDCA
TAF AMD
KDCA 261439Z 2615/2712 32008KT P6SM OVC013
     FM262100 33005KT P6SM SCT035
     FM270300 15004KT P6SM FEW040
     FM270500 VRB03KT 6SM BR SCT040
     FM270900 14004KT 3SM BR SCT250=

USA.gov is the U.S. government's official web portal to all federal, state and local government web resources and services.